createdAt,value
2017-10-27T00:00:14.495Z,1011.5
2017-10-27T00:00:55.057Z,1011.55
2017-10-27T00:01:35.636Z,1011.49
2017-10-27T00:02:16.194Z,1011.49
2017-10-27T00:02:56.776Z,1011.5
2017-10-27T00:03:37.349Z,1011.47
2017-10-27T00:04:17.915Z,1011.46
2017-10-27T00:04:58.533Z,1011.48
2017-10-27T00:05:39.105Z,1011.5
2017-10-27T00:06:19.703Z,1011.48
2017-10-27T00:07:00.324Z,1011.53
2017-10-27T00:07:40.912Z,1011.52
2017-10-27T00:08:21.503Z,1011.47
2017-10-27T00:09:02.081Z,1011.47
2017-10-27T00:09:42.673Z,1011.43
2017-10-27T00:10:23.252Z,1011.41
2017-10-27T00:11:03.829Z,1011.43
2017-10-27T00:11:44.409Z,1011.43
2017-10-27T00:12:25.025Z,1011.42
2017-10-27T00:13:05.625Z,1011.5
2017-10-27T00:13:46.200Z,1011.45
2017-10-27T00:14:26.810Z,1011.45
2017-10-27T00:15:07.386Z,1011.47
2017-10-27T00:15:47.983Z,1011.46
2017-10-27T00:16:28.550Z,1011.47
2017-10-27T00:17:09.144Z,1011.49
2017-10-27T00:17:49.773Z,1011.47
2017-10-27T00:18:30.334Z,1011.44
2017-10-27T00:19:10.911Z,1011.44
2017-10-27T00:19:51.474Z,1011.43
2017-10-27T00:20:32.052Z,1011.4
2017-10-27T00:21:12.644Z,1011.41
2017-10-27T00:21:53.250Z,1011.37
2017-10-27T00:22:33.816Z,1011.35
2017-10-27T00:23:14.437Z,1011.34
2017-10-27T00:23:55.014Z,1011.31
2017-10-27T00:24:35.605Z,1011.29
2017-10-27T00:25:16.180Z,1011.33
2017-10-27T00:25:56.761Z,1011.27
2017-10-27T00:26:37.456Z,1011.34
2017-10-27T00:27:18.011Z,1011.26
2017-10-27T00:27:58.612Z,1011.27
2017-10-27T00:28:39.195Z,1011.24
2017-10-27T00:29:19.790Z,1011.2
2017-10-27T00:30:00.388Z,1011.24
2017-10-27T00:30:40.958Z,1011.2
2017-10-27T00:31:21.556Z,1011.22
2017-10-27T00:32:02.141Z,1011.2
2017-10-27T00:32:42.718Z,1011.18
2017-10-27T00:33:23.296Z,1011.16
2017-10-27T00:34:03.891Z,1011.14
2017-10-27T00:34:44.458Z,1011.16
2017-10-27T00:35:25.050Z,1011.18
2017-10-27T00:36:05.616Z,1011.19
2017-10-27T00:36:46.192Z,1011.21
2017-10-27T00:37:26.778Z,1011.23
2017-10-27T00:38:07.350Z,1011.22
2017-10-27T00:38:47.944Z,1011.26
2017-10-27T00:39:28.525Z,1011.29
2017-10-27T00:40:09.097Z,1011.26
2017-10-27T00:40:49.663Z,1011.26
2017-10-27T00:41:30.228Z,1011.25
2017-10-27T00:42:10.831Z,1011.24
2017-10-27T00:42:51.420Z,1011.23
2017-10-27T00:43:31.993Z,1011.22
2017-10-27T00:44:12.573Z,1011.2
2017-10-27T00:44:53.151Z,1011.28
2017-10-27T00:45:33.737Z,1011.23
2017-10-27T00:46:14.306Z,1011.24
2017-10-27T00:46:54.886Z,1011.17
2017-10-27T00:47:35.453Z,1011.18
2017-10-27T00:48:16.040Z,1011.12
2017-10-27T00:48:56.641Z,1011.13
2017-10-27T00:49:37.211Z,1011.12
2017-10-27T00:50:17.790Z,1011.09
2017-10-27T00:50:58.362Z,1011.12
2017-10-27T00:51:38.956Z,1011.1
2017-10-27T00:52:19.539Z,1011.1
2017-10-27T00:53:00.113Z,1011.11
2017-10-27T00:53:40.710Z,1011.12
2017-10-27T00:54:21.302Z,1011.07
2017-10-27T00:55:01.899Z,1011.01
2017-10-27T00:55:42.472Z,1010.99
2017-10-27T00:56:23.052Z,1010.97
2017-10-27T00:57:03.632Z,1010.91
2017-10-27T00:57:44.222Z,1010.93
2017-10-27T00:58:24.835Z,1010.96
2017-10-27T00:59:05.411Z,1010.96
2017-10-27T00:59:45.981Z,1010.93
2017-10-27T01:00:26.547Z,1010.93
2017-10-27T01:01:07.141Z,1010.89
2017-10-27T01:01:47.748Z,1010.9
2017-10-27T01:02:28.315Z,1010.92
2017-10-27T01:03:08.894Z,1010.88
2017-10-27T01:03:49.484Z,1010.91
2017-10-27T01:04:30.058Z,1010.89
2017-10-27T01:05:10.644Z,1010.91
2017-10-27T01:05:51.227Z,1010.88
2017-10-27T01:06:31.793Z,1010.82
2017-10-27T01:07:12.392Z,1010.86
2017-10-27T01:07:52.997Z,1010.84
2017-10-27T01:08:33.561Z,1010.88
2017-10-27T01:09:14.161Z,1010.88
2017-10-27T01:09:54.767Z,1010.84
2017-10-27T01:10:35.335Z,1010.79
2017-10-27T01:11:15.947Z,1010.86
2017-10-27T01:11:56.526Z,1010.78
2017-10-27T01:12:37.106Z,1010.79
2017-10-27T01:13:17.720Z,1010.71
2017-10-27T01:13:58.290Z,1010.72
2017-10-27T01:14:38.875Z,1010.71
2017-10-27T01:15:19.440Z,1010.72
2017-10-27T01:16:00.007Z,1010.73
2017-10-27T01:16:40.587Z,1010.72
2017-10-27T01:17:21.152Z,1010.73
2017-10-27T01:18:01.731Z,1010.74
2017-10-27T01:18:42.306Z,1010.71
2017-10-27T01:19:22.887Z,1010.74
2017-10-27T01:20:03.456Z,1010.76
2017-10-27T01:20:44.050Z,1010.75
2017-10-27T01:21:24.622Z,1010.73
2017-10-27T01:22:05.197Z,1010.72
2017-10-27T01:22:45.753Z,1010.8
2017-10-27T01:23:26.329Z,1010.67
2017-10-27T01:24:06.911Z,1010.75
2017-10-27T01:24:47.476Z,1010.76
2017-10-27T01:25:28.077Z,1010.72
2017-10-27T01:26:08.685Z,1010.78
2017-10-27T01:26:49.230Z,1010.8
2017-10-27T01:27:29.813Z,1010.7
2017-10-27T01:28:10.408Z,1010.73
2017-10-27T01:28:50.985Z,1010.7
2017-10-27T01:29:31.548Z,1010.7
2017-10-27T01:30:12.132Z,1010.7
2017-10-27T01:30:52.706Z,1010.66
2017-10-27T01:31:33.277Z,1010.58
2017-10-27T01:32:13.878Z,1010.63
2017-10-27T01:32:54.450Z,1010.6
2017-10-27T01:33:35.016Z,1010.64
2017-10-27T01:34:15.596Z,1010.6
2017-10-27T01:34:56.184Z,1010.6
2017-10-27T01:35:36.761Z,1010.62
2017-10-27T01:36:17.338Z,1010.6
2017-10-27T01:36:57.911Z,1010.62
2017-10-27T01:37:38.521Z,1010.57
2017-10-27T01:38:19.070Z,1010.54
2017-10-27T01:38:59.701Z,1010.58
2017-10-27T01:39:40.268Z,1010.57
2017-10-27T01:40:20.850Z,1010.58
2017-10-27T01:41:01.466Z,1010.54
2017-10-27T01:41:42.117Z,1010.55
2017-10-27T01:42:22.710Z,1010.5
2017-10-27T01:43:03.273Z,1010.48
2017-10-27T01:43:43.871Z,1010.47
2017-10-27T01:44:24.410Z,1010.51
2017-10-27T01:45:05.028Z,1010.47
2017-10-27T01:45:45.611Z,1010.46
2017-10-27T01:46:26.194Z,1010.42
2017-10-27T01:47:06.802Z,1010.42
2017-10-27T01:47:47.399Z,1010.44
2017-10-27T01:48:27.974Z,1010.46
2017-10-27T01:49:08.597Z,1010.45
2017-10-27T01:49:49.203Z,1010.45
2017-10-27T01:50:29.788Z,1010.42
2017-10-27T01:51:10.352Z,1010.38
2017-10-27T01:51:50.944Z,1010.38
2017-10-27T01:52:31.527Z,1010.36
2017-10-27T01:53:12.105Z,1010.34
2017-10-27T01:53:52.683Z,1010.33
2017-10-27T01:54:33.302Z,1010.29
2017-10-27T01:55:13.891Z,1010.3
2017-10-27T01:55:54.474Z,1010.3
2017-10-27T01:56:35.054Z,1010.31
2017-10-27T01:57:15.645Z,1010.36
2017-10-27T01:57:56.209Z,1010.35
2017-10-27T01:58:36.790Z,1010.34
2017-10-27T01:59:17.372Z,1010.32
2017-10-27T01:59:57.973Z,1010.3
2017-10-27T02:00:38.562Z,1010.29
2017-10-27T02:01:19.170Z,1010.27
2017-10-27T02:01:59.725Z,1010.24
2017-10-27T02:02:40.294Z,1010.25
2017-10-27T02:03:20.883Z,1010.29
2017-10-27T02:04:01.466Z,1010.32
2017-10-27T02:04:42.031Z,1010.28
2017-10-27T02:05:22.640Z,1010.24
2017-10-27T02:06:03.233Z,1010.28
2017-10-27T02:06:43.840Z,1010.33
2017-10-27T02:07:24.434Z,1010.24
2017-10-27T02:08:05.054Z,1010.27
2017-10-27T02:08:45.611Z,1010.25
2017-10-27T02:09:26.218Z,1010.29
2017-10-27T02:10:06.806Z,1010.18
2017-10-27T02:10:47.364Z,1010.19
2017-10-27T02:11:27.940Z,1010.18
2017-10-27T02:12:08.516Z,1010.14
2017-10-27T02:12:49.078Z,1010.16
2017-10-27T02:13:29.666Z,1010.17
2017-10-27T02:14:10.235Z,1010.12
2017-10-27T02:14:50.820Z,1010.12
2017-10-27T02:15:31.387Z,1010.1
2017-10-27T02:16:11.969Z,1010.15
2017-10-27T02:16:52.533Z,1010.08
2017-10-27T02:17:33.102Z,1010.09
2017-10-27T02:18:13.677Z,1010.09
2017-10-27T02:18:54.281Z,1010.06
2017-10-27T02:19:34.862Z,1010.09
2017-10-27T02:20:15.457Z,1010.08
2017-10-27T02:20:56.061Z,1010.07
2017-10-27T02:21:36.657Z,1010.05
2017-10-27T02:22:17.224Z,1010.04
2017-10-27T02:22:57.793Z,1010.04
2017-10-27T02:23:38.376Z,1010.02
2017-10-27T02:24:18.950Z,1009.99
2017-10-27T02:24:59.519Z,1010.01
2017-10-27T02:25:40.087Z,1010.02
2017-10-27T02:26:20.697Z,1009.98
2017-10-27T02:27:01.310Z,1010.05
2017-10-27T02:27:41.891Z,1009.95
2017-10-27T02:28:22.469Z,1009.97
2017-10-27T02:29:03.024Z,1009.94
2017-10-27T02:29:43.600Z,1009.91
2017-10-27T02:30:24.206Z,1009.99
2017-10-27T02:31:04.782Z,1009.97
2017-10-27T02:31:45.351Z,1009.95
2017-10-27T02:32:25.928Z,1009.94
2017-10-27T02:33:06.514Z,1009.94
2017-10-27T02:33:47.103Z,1009.95
2017-10-27T02:34:27.678Z,1009.92
2017-10-27T02:35:08.293Z,1009.89
2017-10-27T02:35:48.871Z,1009.93
2017-10-27T02:36:29.483Z,1009.9
2017-10-27T02:37:10.078Z,1009.94
2017-10-27T02:37:50.663Z,1009.93
2017-10-27T02:38:31.226Z,1009.92
2017-10-27T02:39:11.806Z,1009.91
2017-10-27T02:39:52.441Z,1009.89
2017-10-27T02:40:33.022Z,1009.91
2017-10-27T02:41:13.592Z,1009.92
2017-10-27T02:41:54.162Z,1009.91
2017-10-27T02:42:34.765Z,1009.87
2017-10-27T02:43:15.378Z,1009.9
2017-10-27T02:43:55.956Z,1009.91
2017-10-27T02:44:36.563Z,1009.9
2017-10-27T02:45:17.123Z,1009.87
2017-10-27T02:45:57.697Z,1009.86
2017-10-27T02:46:38.271Z,1009.9
2017-10-27T02:47:18.866Z,1009.91
2017-10-27T02:47:59.480Z,1009.9
2017-10-27T02:48:40.077Z,1009.89
2017-10-27T02:49:20.641Z,1009.9
2017-10-27T02:50:01.314Z,1009.89
2017-10-27T02:50:41.881Z,1009.84
2017-10-27T02:51:22.453Z,1009.89
2017-10-27T02:52:03.061Z,1009.87
2017-10-27T02:52:43.632Z,1009.86
2017-10-27T02:53:24.203Z,1009.86
2017-10-27T02:54:04.790Z,1009.78
2017-10-27T02:54:45.356Z,1009.78
2017-10-27T02:55:25.927Z,1009.77
2017-10-27T02:56:06.499Z,1009.75
2017-10-27T02:56:47.078Z,1009.71
2017-10-27T02:57:27.646Z,1009.79
2017-10-27T02:58:08.212Z,1009.66
2017-10-27T02:58:48.794Z,1009.69
2017-10-27T02:59:29.347Z,1009.65
2017-10-27T03:00:09.934Z,1009.65
2017-10-27T03:00:50.506Z,1009.63
2017-10-27T03:01:31.071Z,1009.65
2017-10-27T03:02:11.660Z,1009.59
2017-10-27T03:02:52.238Z,1009.63
2017-10-27T03:03:32.814Z,1009.63
2017-10-27T03:04:13.386Z,1009.64
2017-10-27T03:04:53.965Z,1009.63
2017-10-27T03:05:34.523Z,1009.6
2017-10-27T03:06:15.093Z,1009.55
2017-10-27T03:06:55.678Z,1009.54
2017-10-27T03:07:36.239Z,1009.55
2017-10-27T03:08:16.820Z,1009.56
2017-10-27T03:08:57.427Z,1009.54
2017-10-27T03:09:38.015Z,1009.52
2017-10-27T03:10:18.577Z,1009.57
2017-10-27T03:10:59.144Z,1009.5
2017-10-27T03:11:39.722Z,1009.52
2017-10-27T03:12:20.283Z,1009.49
2017-10-27T03:13:00.843Z,1009.49
2017-10-27T03:13:41.412Z,1009.51
2017-10-27T03:14:21.998Z,1009.54
2017-10-27T03:15:02.572Z,1009.44
2017-10-27T03:15:43.148Z,1009.47
2017-10-27T03:16:23.709Z,1009.47
2017-10-27T03:17:04.301Z,1009.43
2017-10-27T03:17:44.861Z,1009.41
2017-10-27T03:18:25.435Z,1009.42
2017-10-27T03:19:06.008Z,1009.44
2017-10-27T03:19:46.602Z,1009.3
2017-10-27T03:20:27.170Z,1009.33
2017-10-27T03:21:07.750Z,1009.28
2017-10-27T03:21:48.332Z,1009.25
2017-10-27T03:22:28.908Z,1009.28
2017-10-27T03:23:09.524Z,1009.28
2017-10-27T03:23:50.108Z,1009.27
2017-10-27T03:24:30.679Z,1009.24
2017-10-27T03:25:11.264Z,1009.3
2017-10-27T03:25:51.844Z,1009.29
2017-10-27T03:26:32.795Z,1009.22
2017-10-27T03:27:13.550Z,1009.24
2017-10-27T03:27:54.241Z,1009.25
2017-10-27T03:28:34.821Z,1009.21
2017-10-27T03:29:15.400Z,1009.28
2017-10-27T03:29:55.978Z,1009.3
2017-10-27T03:30:36.550Z,1009.31
2017-10-27T03:31:17.131Z,1009.3
2017-10-27T03:31:57.756Z,1009.28
2017-10-27T03:32:38.377Z,1009.33
2017-10-27T03:33:18.999Z,1009.27
2017-10-27T03:33:59.576Z,1009.35
2017-10-27T03:34:40.166Z,1009.27
2017-10-27T03:35:20.739Z,1009.24
2017-10-27T03:36:01.373Z,1009.3
2017-10-27T03:36:41.931Z,1009.33
2017-10-27T03:37:22.509Z,1009.27
2017-10-27T03:38:03.090Z,1009.28
2017-10-27T03:38:43.664Z,1009.25
2017-10-27T03:39:24.260Z,1009.3
2017-10-27T03:40:04.838Z,1009.24
2017-10-27T03:40:45.473Z,1009.31
2017-10-27T03:41:26.096Z,1009.32
2017-10-27T03:42:06.679Z,1009.25
2017-10-27T03:42:47.255Z,1009.31
2017-10-27T03:43:27.813Z,1009.35
2017-10-27T03:44:08.393Z,1009.26
2017-10-27T03:44:48.974Z,1009.28
2017-10-27T03:45:29.568Z,1009.27
2017-10-27T03:46:10.145Z,1009.25
2017-10-27T03:46:50.775Z,1009.28
2017-10-27T03:47:31.376Z,1009.22
2017-10-27T03:48:12.013Z,1009.15
2017-10-27T03:48:52.592Z,1009.23
2017-10-27T03:49:33.172Z,1009.19
2017-10-27T03:50:13.735Z,1009.17
2017-10-27T03:50:54.323Z,1009.15
2017-10-27T03:51:34.897Z,1009.15
2017-10-27T03:52:15.479Z,1009.13
2017-10-27T03:52:56.103Z,1009.22
2017-10-27T03:53:36.695Z,1009.23
2017-10-27T03:54:17.280Z,1009.22
2017-10-27T03:54:57.850Z,1009.19
2017-10-27T03:55:38.456Z,1009.2
2017-10-27T03:56:19.051Z,1009.1
2017-10-27T03:56:59.653Z,1009.14
2017-10-27T03:57:40.201Z,1009.11
2017-10-27T03:58:20.763Z,1009.1
2017-10-27T03:59:01.336Z,1009.19
2017-10-27T03:59:41.903Z,1009.16
2017-10-27T04:00:22.476Z,1009.17
2017-10-27T04:01:03.064Z,1009.22
2017-10-27T04:01:43.664Z,1009.21
2017-10-27T04:02:24.230Z,1009.17
2017-10-27T04:03:04.830Z,1009.2
2017-10-27T04:03:45.408Z,1009.2
2017-10-27T04:04:25.972Z,1009.17
2017-10-27T04:05:06.528Z,1009.18
2017-10-27T04:05:47.123Z,1009.21
2017-10-27T04:06:27.699Z,1009.19
2017-10-27T04:07:08.277Z,1009.18
2017-10-27T04:07:48.869Z,1009.19
2017-10-27T04:08:29.703Z,1009.19
2017-10-27T04:09:10.302Z,1009.21
2017-10-27T04:09:50.890Z,1009.2
2017-10-27T04:10:31.460Z,1009.22
2017-10-27T04:11:12.051Z,1009.2
2017-10-27T04:11:52.651Z,1009.23
2017-10-27T04:12:33.264Z,1009.25
2017-10-27T04:13:13.923Z,1009.19
2017-10-27T04:13:54.504Z,1009.21
2017-10-27T04:14:35.079Z,1009.18
2017-10-27T04:15:15.683Z,1009.21
2017-10-27T04:15:56.265Z,1009.17
2017-10-27T04:16:36.841Z,1009.21
2017-10-27T04:17:17.412Z,1009.2
2017-10-27T04:17:57.986Z,1009.13
2017-10-27T04:18:38.556Z,1009.16
2017-10-27T04:19:19.154Z,1009.14
2017-10-27T04:19:59.760Z,1009.17
2017-10-27T04:20:40.328Z,1009.15
2017-10-27T04:21:20.897Z,1009.11
2017-10-27T04:22:01.479Z,1009.09
2017-10-27T04:22:42.077Z,1009.15
2017-10-27T04:23:22.654Z,1009.15
2017-10-27T04:24:03.240Z,1009.12
2017-10-27T04:24:43.799Z,1009.14
2017-10-27T04:25:24.390Z,1009.1
2017-10-27T04:26:04.964Z,1009.11
2017-10-27T04:26:45.539Z,1009.08
2017-10-27T04:27:26.107Z,1009.13
2017-10-27T04:28:06.719Z,1009.1
2017-10-27T04:28:47.308Z,1009.17
2017-10-27T04:29:27.914Z,1009.12
2017-10-27T04:30:08.637Z,1009.17
2017-10-27T04:30:49.274Z,1009.14
2017-10-27T04:31:29.858Z,1009.15
2017-10-27T04:32:10.433Z,1009.14
2017-10-27T04:32:51.028Z,1009.15
2017-10-27T04:33:31.623Z,1009.17
2017-10-27T04:34:12.189Z,1009.13
2017-10-27T04:34:52.753Z,1009.11
2017-10-27T04:35:33.330Z,1009.11
2017-10-27T04:36:13.913Z,1009.06
2017-10-27T04:36:54.496Z,1009.08
2017-10-27T04:37:35.805Z,1009.11
2017-10-27T04:38:16.456Z,1009.12
2017-10-27T04:38:57.053Z,1009.05
2017-10-27T04:39:37.708Z,1009
2017-10-27T04:40:18.538Z,1009.06
2017-10-27T04:40:59.124Z,1008.97
2017-10-27T04:41:39.681Z,1009.02
2017-10-27T04:42:20.273Z,1009.02
2017-10-27T04:43:00.868Z,1009.01
2017-10-27T04:43:41.457Z,1009.04
2017-10-27T04:44:22.111Z,1009.09
2017-10-27T04:45:02.747Z,1009.07
2017-10-27T04:45:43.361Z,1009.06
2017-10-27T04:46:23.918Z,1009.09
2017-10-27T04:47:04.487Z,1009.1
2017-10-27T04:47:45.107Z,1009.11
2017-10-27T04:48:25.719Z,1009.07
2017-10-27T04:49:06.300Z,1009.08
2017-10-27T04:49:46.933Z,1009.09
2017-10-27T04:50:27.599Z,1009.08
2017-10-27T04:51:08.193Z,1009.04
2017-10-27T04:51:48.765Z,1009.08
2017-10-27T04:52:29.704Z,1009.12
2017-10-27T04:53:10.695Z,1009.07
2017-10-27T04:53:51.289Z,1009.07
2017-10-27T04:54:31.879Z,1009.14
2017-10-27T04:55:12.469Z,1009.17
2017-10-27T04:55:53.100Z,1009.16
2017-10-27T04:56:33.677Z,1009.13
2017-10-27T04:57:14.259Z,1009.15
2017-10-27T04:57:54.815Z,1009.18
2017-10-27T04:58:35.385Z,1009.2
2017-10-27T04:59:15.955Z,1009.13
2017-10-27T04:59:56.552Z,1009.1
2017-10-27T05:00:37.137Z,1009.21
2017-10-27T05:01:17.702Z,1009.21
2017-10-27T05:01:58.270Z,1009.19
2017-10-27T05:02:38.862Z,1009.05
2017-10-27T05:03:19.433Z,1009.12
2017-10-27T05:04:00.017Z,1009.09
2017-10-27T05:04:40.590Z,1009.07
2017-10-27T05:05:21.189Z,1009.09
2017-10-27T05:06:01.774Z,1009.07
2017-10-27T05:06:42.381Z,1009.05
2017-10-27T05:07:22.959Z,1009.01
2017-10-27T05:08:03.535Z,1009.03
2017-10-27T05:08:44.135Z,1008.99
2017-10-27T05:09:24.720Z,1008.99
2017-10-27T05:10:05.317Z,1009
2017-10-27T05:10:45.887Z,1009.05
2017-10-27T05:11:26.494Z,1009.04
2017-10-27T05:12:07.097Z,1009.04
2017-10-27T05:12:47.663Z,1009.09
2017-10-27T05:13:28.241Z,1009.05
2017-10-27T05:14:08.839Z,1009.07
2017-10-27T05:14:49.405Z,1009.03
2017-10-27T05:15:29.974Z,1009
2017-10-27T05:16:10.568Z,1008.99
2017-10-27T05:16:51.135Z,1008.99
2017-10-27T05:17:31.715Z,1009
2017-10-27T05:18:12.326Z,1008.98
2017-10-27T05:18:52.934Z,1008.98
2017-10-27T05:19:33.507Z,1008.91
2017-10-27T05:20:14.069Z,1008.97
2017-10-27T05:20:54.657Z,1008.97
2017-10-27T05:21:35.248Z,1008.94
2017-10-27T05:22:15.826Z,1008.97
2017-10-27T05:22:56.400Z,1008.98
2017-10-27T05:23:36.965Z,1008.93
2017-10-27T05:24:17.549Z,1008.9
2017-10-27T05:24:58.134Z,1008.96
2017-10-27T05:25:38.715Z,1008.91
2017-10-27T05:26:19.303Z,1008.95
2017-10-27T05:26:59.931Z,1008.85
2017-10-27T05:27:40.509Z,1008.91
2017-10-27T05:28:21.115Z,1008.91
2017-10-27T05:29:02.094Z,1008.93
2017-10-27T05:29:42.760Z,1008.94
2017-10-27T05:30:23.362Z,1008.96
2017-10-27T05:31:03.939Z,1008.92
2017-10-27T05:31:44.531Z,1008.94
2017-10-27T05:32:25.091Z,1008.94
2017-10-27T05:33:05.671Z,1008.98
2017-10-27T05:33:46.249Z,1008.98
2017-10-27T05:34:26.837Z,1008.9
2017-10-27T05:35:07.441Z,1008.98
2017-10-27T05:35:48.049Z,1008.98
2017-10-27T05:36:28.650Z,1008.99
2017-10-27T05:37:09.237Z,1008.95
2017-10-27T05:37:49.825Z,1008.96
2017-10-27T05:38:30.438Z,1008.96
2017-10-27T05:39:10.999Z,1008.98
2017-10-27T05:39:51.594Z,1008.97
2017-10-27T05:40:32.175Z,1008.97
2017-10-27T05:41:12.783Z,1009.01
2017-10-27T05:41:53.346Z,1009.02
2017-10-27T05:42:33.928Z,1008.99
2017-10-27T05:43:14.498Z,1008.93
2017-10-27T05:43:55.089Z,1008.99
2017-10-27T05:44:35.678Z,1008.99
2017-10-27T05:45:16.264Z,1008.97
2017-10-27T05:45:56.873Z,1008.97
2017-10-27T05:46:37.484Z,1008.95
2017-10-27T05:47:18.077Z,1008.96
2017-10-27T05:47:58.637Z,1008.97
2017-10-27T05:48:39.232Z,1008.96
2017-10-27T05:49:19.810Z,1008.96
2017-10-27T05:50:00.438Z,1008.98
2017-10-27T05:50:41.134Z,1009
2017-10-27T05:51:21.784Z,1009.01
2017-10-27T05:52:02.422Z,1009.03
2017-10-27T05:52:42.999Z,1008.99
2017-10-27T05:53:23.560Z,1008.97
2017-10-27T05:54:04.143Z,1008.96
2017-10-27T05:54:44.741Z,1009
2017-10-27T05:55:25.346Z,1009
2017-10-27T05:56:05.922Z,1009.03
2017-10-27T05:56:46.549Z,1008.99
2017-10-27T05:57:27.117Z,1009.01
2017-10-27T05:58:07.711Z,1009.07
2017-10-27T05:58:48.459Z,1009.04
2017-10-27T05:59:29.025Z,1009.08
2017-10-27T06:00:09.585Z,1009.08
2017-10-27T06:00:50.174Z,1009.06
2017-10-27T06:01:30.799Z,1009.1
2017-10-27T06:02:11.414Z,1009.11
2017-10-27T06:02:51.999Z,1009.1
2017-10-27T06:03:32.591Z,1009.07
2017-10-27T06:04:13.176Z,1009.08
2017-10-27T06:04:53.767Z,1009.09
2017-10-27T06:05:34.342Z,1009.11
2017-10-27T06:06:14.899Z,1009.08
2017-10-27T06:06:55.467Z,1009.08
2017-10-27T06:07:36.054Z,1009.04
2017-10-27T06:08:16.744Z,1009.09
2017-10-27T06:08:57.311Z,1009.07
2017-10-27T06:09:37.872Z,1009.06
2017-10-27T06:10:18.463Z,1009.09
2017-10-27T06:10:59.069Z,1009.03
2017-10-27T06:11:39.657Z,1009.08
2017-10-27T06:12:20.239Z,1009.05
2017-10-27T06:13:00.868Z,1009.08
2017-10-27T06:13:41.440Z,1009.1
2017-10-27T06:14:22.011Z,1009.05
2017-10-27T06:15:02.585Z,1009.06
2017-10-27T06:15:43.158Z,1009.07
2017-10-27T06:16:23.749Z,1009.07
2017-10-27T06:17:04.318Z,1009.05
2017-10-27T06:17:44.886Z,1009.04
2017-10-27T06:18:25.457Z,1009.07
2017-10-27T06:19:06.066Z,1009
2017-10-27T06:19:46.645Z,1009.07
2017-10-27T06:20:27.482Z,1009.07
2017-10-27T06:21:08.048Z,1009.11
2017-10-27T06:21:48.637Z,1009.06
2017-10-27T06:22:29.275Z,1009.1
2017-10-27T06:23:09.842Z,1009.11
2017-10-27T06:23:50.424Z,1009.16
2017-10-27T06:24:31.003Z,1009.13
2017-10-27T06:25:11.576Z,1009.11
2017-10-27T06:25:52.147Z,1009.16
2017-10-27T06:26:32.725Z,1009.12
2017-10-27T06:27:13.305Z,1009.13
2017-10-27T06:27:53.899Z,1009.12
2017-10-27T06:28:34.494Z,1009.09
2017-10-27T06:29:15.086Z,1009.11
2017-10-27T06:29:55.644Z,1009.07
2017-10-27T06:30:36.253Z,1009.1
2017-10-27T06:31:16.846Z,1009.11
2017-10-27T06:31:57.426Z,1009.14
2017-10-27T06:32:38.015Z,1009.13
2017-10-27T06:33:18.600Z,1009.15
2017-10-27T06:33:59.186Z,1009.13
2017-10-27T06:34:39.807Z,1009.13
2017-10-27T06:35:20.376Z,1009.14
2017-10-27T06:36:00.964Z,1009.14
2017-10-27T06:36:41.562Z,1009.07
2017-10-27T06:37:22.158Z,1009.15
2017-10-27T06:38:02.757Z,1009.13
2017-10-27T06:38:43.344Z,1009.13
2017-10-27T06:39:23.931Z,1009.12
2017-10-27T06:40:04.503Z,1009.16
2017-10-27T06:40:45.142Z,1009.11
2017-10-27T06:41:25.711Z,1009.07
2017-10-27T06:42:06.279Z,1009.17
2017-10-27T06:42:46.863Z,1009.06
2017-10-27T06:43:27.460Z,1009.17
2017-10-27T06:44:08.055Z,1009.08
2017-10-27T06:44:48.620Z,1009.2
2017-10-27T06:45:29.229Z,1009.22
2017-10-27T06:46:09.783Z,1009.23
2017-10-27T06:46:50.378Z,1009.19
2017-10-27T06:47:30.960Z,1009.25
2017-10-27T06:48:11.533Z,1009.19
2017-10-27T06:48:52.131Z,1009.16
2017-10-27T06:49:32.755Z,1009.24
2017-10-27T06:50:13.340Z,1009.22
2017-10-27T06:50:53.948Z,1009.3
2017-10-27T06:51:34.503Z,1009.34
2017-10-27T06:52:15.099Z,1009.32
2017-10-27T06:52:55.719Z,1009.32
2017-10-27T06:53:36.294Z,1009.31
2017-10-27T06:54:16.876Z,1009.31
2017-10-27T06:54:57.462Z,1009.33
2017-10-27T06:55:38.098Z,1009.28
2017-10-27T06:56:18.676Z,1009.31
2017-10-27T06:56:59.255Z,1009.26
2017-10-27T06:57:39.842Z,1009.32
2017-10-27T06:58:20.424Z,1009.32
2017-10-27T06:59:01.043Z,1009.26
2017-10-27T06:59:41.617Z,1009.25
2017-10-27T07:00:22.177Z,1009.27
2017-10-27T07:01:02.764Z,1009.29
2017-10-27T07:01:43.347Z,1009.28
2017-10-27T07:02:23.923Z,1009.27
2017-10-27T07:03:04.495Z,1009.32
2017-10-27T07:03:45.091Z,1009.34
2017-10-27T07:04:25.677Z,1009.29
2017-10-27T07:05:06.245Z,1009.29
2017-10-27T07:05:46.831Z,1009.28
2017-10-27T07:06:27.465Z,1009.31
2017-10-27T07:07:08.034Z,1009.3
2017-10-27T07:07:48.625Z,1009.32
2017-10-27T07:08:29.207Z,1009.36
2017-10-27T07:09:09.796Z,1009.31
2017-10-27T07:09:50.377Z,1009.32
2017-10-27T07:10:30.962Z,1009.33
2017-10-27T07:11:11.564Z,1009.32
2017-10-27T07:11:52.169Z,1009.31
2017-10-27T07:12:32.748Z,1009.34
2017-10-27T07:13:13.316Z,1009.35
2017-10-27T07:13:53.928Z,1009.34
2017-10-27T07:14:34.520Z,1009.34
2017-10-27T07:15:15.092Z,1009.38
2017-10-27T07:15:55.681Z,1009.39
2017-10-27T07:16:36.285Z,1009.35
2017-10-27T07:17:16.919Z,1009.34
2017-10-27T07:17:57.537Z,1009.34
2017-10-27T07:18:38.111Z,1009.35
2017-10-27T07:19:18.701Z,1009.33
2017-10-27T07:19:59.293Z,1009.34
2017-10-27T07:20:39.912Z,1009.38
2017-10-27T07:21:20.488Z,1009.38
2017-10-27T07:22:01.048Z,1009.43
2017-10-27T07:22:41.652Z,1009.38
2017-10-27T07:23:22.236Z,1009.37
2017-10-27T07:24:02.873Z,1009.39
2017-10-27T07:24:43.474Z,1009.37
2017-10-27T07:25:24.055Z,1009.22
2017-10-27T07:26:04.719Z,1009.21
2017-10-27T07:26:45.318Z,1009.19
2017-10-27T07:27:25.902Z,1009.23
2017-10-27T07:28:06.526Z,1009.25
2017-10-27T07:28:47.051Z,1009.23
2017-10-27T07:29:27.634Z,1009.27
2017-10-27T07:30:08.255Z,1009.26
2017-10-27T07:30:48.909Z,1009.28
2017-10-27T07:31:29.496Z,1009.26
2017-10-27T07:32:10.088Z,1009.27
2017-10-27T07:32:50.699Z,1009.25
2017-10-27T07:33:31.280Z,1009.31
2017-10-27T07:34:11.879Z,1009.29
2017-10-27T07:34:52.431Z,1009.29
2017-10-27T07:35:33.027Z,1009.28
2017-10-27T07:36:13.649Z,1009.33
2017-10-27T07:36:54.232Z,1009.32
2017-10-27T07:37:34.806Z,1009.42
2017-10-27T07:38:15.377Z,1009.26
2017-10-27T07:38:55.993Z,1009.39
2017-10-27T07:39:36.598Z,1009.35
2017-10-27T07:40:17.188Z,1009.43
2017-10-27T07:40:57.815Z,1009.37
2017-10-27T07:41:38.360Z,1009.38
2017-10-27T07:42:18.924Z,1009.4
2017-10-27T07:42:59.505Z,1009.43
2017-10-27T07:43:40.123Z,1009.46
2017-10-27T07:44:20.696Z,1009.43
2017-10-27T07:45:01.292Z,1009.4
2017-10-27T07:45:41.856Z,1009.43
2017-10-27T07:46:22.475Z,1009.39
2017-10-27T07:47:03.046Z,1009.4
2017-10-27T07:47:43.629Z,1009.4
2017-10-27T07:48:24.222Z,1009.38
2017-10-27T07:49:04.789Z,1009.42
2017-10-27T07:49:45.393Z,1009.42
2017-10-27T07:50:25.975Z,1009.4
2017-10-27T07:51:06.579Z,1009.38
2017-10-27T07:51:47.191Z,1009.43
2017-10-27T07:52:27.827Z,1009.39
2017-10-27T07:53:08.461Z,1009.46
2017-10-27T07:53:49.067Z,1009.49
2017-10-27T07:54:29.656Z,1009.46
2017-10-27T07:55:10.329Z,1009.51
2017-10-27T07:55:51.110Z,1009.47
2017-10-27T07:56:31.653Z,1009.43
2017-10-27T07:57:12.269Z,1009.5
2017-10-27T07:57:52.841Z,1009.47
2017-10-27T07:58:33.452Z,1009.43
2017-10-27T07:59:14.047Z,1009.48
2017-10-27T07:59:54.750Z,1009.48
2017-10-27T08:00:35.333Z,1009.51
2017-10-27T08:01:15.928Z,1009.47
2017-10-27T08:01:56.499Z,1009.49
2017-10-27T08:02:37.198Z,1009.49
2017-10-27T08:03:17.775Z,1009.45
2017-10-27T08:03:58.365Z,1009.49
2017-10-27T08:04:38.946Z,1009.49
2017-10-27T08:05:19.575Z,1009.37
2017-10-27T08:06:00.174Z,1009.47
2017-10-27T08:06:40.786Z,1009.33
2017-10-27T08:07:21.404Z,1009.45
2017-10-27T08:08:01.977Z,1009.43
2017-10-27T08:08:42.582Z,1009.47
2017-10-27T08:09:23.167Z,1009.45
2017-10-27T08:10:03.750Z,1009.48
2017-10-27T08:10:44.341Z,1009.49
2017-10-27T08:11:24.917Z,1009.41
2017-10-27T08:12:05.529Z,1009.44
2017-10-27T08:12:46.116Z,1009.47